Gijón Campus
latitud = 43° 31' 23''N | Longitud = 005° 37' 16''W | altura s/n = 26m
fecha-hora | temperatura | viento dirección-velocidad-rachas | humedad | presión

  • 08-07-2020 07:00:00 | 17.90°C | Sudeste-21.00 km/h - 42.00 km/h | 97.00% | 0.00 hPa
  • 08-07-2020 06:00:00 | 17.80°C | Este-22.00 km/h - 42.00 km/h | 96.00% | 0.00 hPa
  • 08-07-2020 05:00:00 | 17.90°C | Este-22.00 km/h - 44.00 km/h | 94.00% | 0.00 hPa
  • 08-07-2020 04:00:00 | 18.00°C | Este-23.00 km/h - 45.00 km/h | 93.00% | 0.00 hPa
  • 08-07-2020 03:00:00 | 18.00°C | Este-28.00 km/h - 48.00 km/h | 92.00% | 0.00 hPa
  • 08-07-2020 02:00:00 | 18.20°C | Este-30.00 km/h - 51.00 km/h | 92.00% | 0.00 hPa
  • 08-07-2020 01:00:00 | 18.50°C | Este-30.00 km/h - 53.00 km/h | 91.00% | 0.00 hPa
  • 08-07-2020 00:00:00 | 18.30°C | Este-30.00 km/h - 47.00 km/h | 93.00% | 0.00 hPa
  • 07-07-2020 23:00:00 | 18.40°C | Este-30.00 km/h - 43.00 km/h | 94.00% | 0.00 hPa
  • 07-07-2020 22:00:00 | 18.30°C | Este-25.00 km/h - 45.00 km/h | 94.00% | 0.00 hPa
  • 07-07-2020 21:00:00 | 18.50°C | Este-25.00 km/h - 42.00 km/h | 92.00% | 0.00 hPa
  • 07-07-2020 20:00:00 | 18.70°C | Este-25.00 km/h - 45.00 km/h | 90.00% | 0.00 hPa
  • 07-07-2020 19:00:00 | 18.70°C | Este-28.00 km/h - 45.00 km/h | 87.00% | 0.00 hPa
  • 07-07-2020 18:00:00 | 19.00°C | Este-26.00 km/h - 47.00 km/h | 85.00% | 0.00 hPa
  • 07-07-2020 17:00:00 | 19.90°C | Este-27.00 km/h - 44.00 km/h | 80.00% | 0.00 hPa
  • 07-07-2020 16:00:00 | 19.90°C | Este-26.00 km/h - 41.00 km/h | 78.00% | 0.00 hPa
  • 07-07-2020 15:00:00 | 19.00°C | Este-25.00 km/h - 42.00 km/h | 79.00% | 0.00 hPa
  • 07-07-2020 14:00:00 | 20.00°C | Este-26.00 km/h - 41.00 km/h | 77.00% | 0.00 hPa
  • 07-07-2020 13:00:00 | 19.70°C | Este-27.00 km/h - 45.00 km/h | 77.00% | 0.00 hPa
  • 07-07-2020 12:00:00 | 19.00°C | Este-26.00 km/h - 42.00 km/h | 77.00% | 0.00 hPa
  • 07-07-2020 11:00:00 | 19.00°C | Este-27.00 km/h - 41.00 km/h | 79.00% | 0.00 hPa
  • 07-07-2020 10:00:00 | 18.40°C | Este-23.00 km/h - 47.00 km/h | 83.00% | 0.00 hPa
  • 07-07-2020 09:00:00 | 17.20°C | Este-27.00 km/h - 46.00 km/h | 82.00% | 0.00 hPa
  • 07-07-2020 08:00:00 | 16.80°C | Este-24.00 km/h - 45.00 km/h | 80.00% | 0.00 hPa
    • Información sobre el estado de las mareas, altura de la marejada, temperatura del agua y otros datos de Gijón en Asturias.

      Surf Gijón